Time,TemperatureF,DewpointF,PressureIn,WindDirection,WindDirectionDegrees,WindSpeedMPH,WindSpeedGustMPH,Humidity,HourlyPrecipIn,Conditions,Clouds,dailyrainin,SolarRadiationWatts/m^2,SoftwareType,DateUTC
2013-04-02 00:07:00,21.5,11.0,29.74,WSW,240,0.0,20.0,63,0.00,,,0.00,0,weatherlink.com 1.10,2013-04-02 04:07:00,
2013-04-02 00:22:00,21.4,10.0,29.75,WNW,302,0.0,16.0,62,0.00,,,0.00,0,weatherlink.com 1.10,2013-04-02 04:22:00,
2013-04-02 00:37:00,21.1,9.0,29.75,NW,308,3.0,14.0,61,0.00,,,0.00,0,weatherlink.com 1.10,2013-04-02 04:37:00,
2013-04-02 00:52:00,20.9,9.0,29.75,West,273,0.0,15.0,61,0.00,,,0.00,0,weatherlink.com 1.10,2013-04-02 04:52:00,
2013-04-02 01:07:00,20.6,9.0,29.75,WNW,283,6.0,15.0,62,0.00,,,0.00,0,weatherlink.com 1.10,2013-04-02 05:07:00,
2013-04-02 01:22:00,20.5,9.0,29.75,NNW,337,1.0,11.0,62,0.00,,,0.00,0,weatherlink.com 1.10,2013-04-02 05:22:00,
2013-04-02 01:37:00,20.3,9.0,29.75,NW,313,4.0,11.0,62,0.00,,,0.00,0,weatherlink.com 1.10,2013-04-02 05:37:00,
2013-04-02 01:52:00,20.1,10.0,29.76,WNW,299,0.0,9.0,64,0.00,,,0.00,0,weatherlink.com 1.10,2013-04-02 05:52:00,
2013-04-02 02:07:00,19.8,9.0,29.76,WNW,302,1.0,8.0,64,0.00,,,0.00,0,weatherlink.com 1.10,2013-04-02 06:07:00,
2013-04-02 02:22:00,19.8,9.0,29.75,NNW,340,6.0,14.0,64,0.00,,,0.00,0,weatherlink.com 1.10,2013-04-02 06:22:00,
2013-04-02 02:37:00,19.7,10.0,29.75,WNW,294,4.0,9.0,65,0.00,,,0.00,0,weatherlink.com 1.10,2013-04-02 06:37:00,
2013-04-02 02:52:00,19.7,9.0,29.75,NW,304,5.0,11.0,64,0.00,,,0.00,0,weatherlink.com 1.10,2013-04-02 06:52:00,
2013-04-02 03:07:00,19.5,9.0,29.74,WNW,298,0.0,10.0,64,0.00,,,0.00,0,weatherlink.com 1.10,2013-04-02 07:07:00,
2013-04-02 03:22:00,19.3,10.0,29.74,NW,321,3.0,8.0,66,0.00,,,0.00,0,weatherlink.com 1.10,2013-04-02 07:22:00,
2013-04-02 03:37:00,19.1,9.0,29.75,NW,306,2.0,14.0,66,0.00,,,0.00,0,weatherlink.com 1.10,2013-04-02 07:37:00,
2013-04-02 03:52:00,18.9,9.0,29.74,NW,312,5.0,11.0,65,0.00,,,0.00,0,weatherlink.com 1.10,2013-04-02 07:52:00,
2013-04-02 04:07:00,18.8,9.0,29.74,NNW,338,0.0,14.0,65,0.00,,,0.00,0,weatherlink.com 1.10,2013-04-02 08:07:00,
2013-04-02 04:23:00,18.6,9.0,29.74,WNW,298,5.0,13.0,66,0.00,,,0.00,0,weatherlink.com 1.10,2013-04-02 08:23:00,
2013-04-02 04:38:00,18.5,10.0,29.74,NW,306,5.0,18.0,68,0.00,,,0.00,0,weatherlink.com 1.10,2013-04-02 08:38:00,
2013-04-02 04:53:00,18.2,10.0,29.75,SSE,147,2.0,7.0,70,0.00,,,0.00,0,weatherlink.com 1.10,2013-04-02 08:53:00,
2013-04-02 05:08:00,18.2,11.0,29.75,WNW,287,1.0,18.0,72,0.00,,,0.00,0,weatherlink.com 1.10,2013-04-02 09:08:00,
2013-04-02 05:23:00,18.0,11.0,29.75,West,273,2.0,12.0,74,0.00,,,0.00,0,weatherlink.com 1.10,2013-04-02 09:23:00,
2013-04-02 05:38:00,17.8,12.0,29.75,NW,307,3.0,12.0,77,0.00,,,0.00,0,weatherlink.com 1.10,2013-04-02 09:38:00,
2013-04-02 05:53:00,17.7,11.0,29.75,WNW,302,1.0,8.0,76,0.00,,,0.00,0,weatherlink.com 1.10,2013-04-02 09:53:00,
2013-04-02 06:08:00,18.0,11.0,29.76,WNW,303,0.0,10.0,75,0.00,,,0.00,0,weatherlink.com 1.10,2013-04-02 10:08:00,
2013-04-02 06:23:00,18.0,11.0,29.76,SE,136,4.0,22.0,74,0.00,,,0.00,0,weatherlink.com 1.10,2013-04-02 10:23:00,
2013-04-02 06:38:00,17.8,11.0,29.77,SE,144,1.0,10.0,74,0.00,,,0.00,11,weatherlink.com 1.10,2013-04-02 10:38:00,
2013-04-02 06:54:00,18.1,11.0,29.77,NW,310,2.0,11.0,73,0.00,,,0.00,21,weatherlink.com 1.10,2013-04-02 10:54:00,
2013-04-02 07:08:00,18.5,12.0,29.78,NW,316,1.0,15.0,74,0.00,,,0.00,53,weatherlink.com 1.10,2013-04-02 11:08:00,
2013-04-02 07:24:00,19.0,11.0,29.78,WNW,286,5.0,13.0,72,0.00,,,0.00,100,weatherlink.com 1.10,2013-04-02 11:24:00,
2013-04-02 07:39:00,19.3,11.0,29.79,NNW,328,0.0,13.0,71,0.00,,,0.00,163,weatherlink.com 1.10,2013-04-02 11:39:00,
2013-04-02 07:54:00,19.7,11.0,29.79,NW,312,7.0,24.0,70,0.00,,,0.00,223,weatherlink.com 1.10,2013-04-02 11:54:00,
2013-04-02 08:10:00,20.0,11.0,29.79,NW,323,4.0,16.0,69,0.00,,,0.00,308,weatherlink.com 1.10,2013-04-02 12:10:00,
2013-04-02 08:25:00,20.5,12.0,29.79,WNW,288,5.0,29.0,69,0.00,,,0.00,360,weatherlink.com 1.10,2013-04-02 12:25:00,
2013-04-02 08:41:00,20.5,11.0,29.80,South,180,5.0,19.0,68,0.00,,,0.00,401,weatherlink.com 1.10,2013-04-02 12:41:00,
2013-04-02 08:55:00,21.0,12.0,29.80,WSW,253,8.0,19.0,67,0.00,,,0.00,468,weatherlink.com 1.10,2013-04-02 12:55:00,
2013-04-02 09:25:00,21.4,12.0,29.80,NW,317,7.0,21.0,66,0.00,,,0.00,302,weatherlink.com 1.10,2013-04-02 13:25:00,
2013-04-02 09:41:00,21.6,13.0,29.80,SSW,204,5.0,21.0,68,0.00,,,0.00,258,weatherlink.com 1.10,2013-04-02 13:41:00,
2013-04-02 09:56:00,20.8,11.0,29.80,NW,319,6.0,23.0,67,0.00,,,0.00,285,weatherlink.com 1.10,2013-04-02 13:56:00,
2013-04-02 10:11:00,22.5,12.0,29.80,NW,316,0.0,18.0,65,0.00,,,0.00,367,weatherlink.com 1.10,2013-04-02 14:11:00,
2013-04-02 10:26:00,22.4,12.0,29.80,SSE,160,5.0,15.0,65,0.00,,,0.00,786,weatherlink.com 1.10,2013-04-02 14:26:00,
2013-04-02 10:41:00,21.3,13.0,29.80,West,261,2.0,15.0,70,0.00,,,0.00,204,weatherlink.com 1.10,2013-04-02 14:41:00,
2013-04-02 10:56:00,21.8,14.0,29.81,NW,319,1.0,25.0,73,0.00,,,0.00,243,weatherlink.com 1.10,2013-04-02 14:56:00,
2013-04-02 11:11:00,21.6,15.0,29.81,West,269,4.0,24.0,74,0.00,,,0.00,248,weatherlink.com 1.10,2013-04-02 15:11:00,
2013-04-02 11:27:00,21.1,14.0,29.81,NNW,327,3.0,29.0,75,0.00,,,0.00,510,weatherlink.com 1.10,2013-04-02 15:27:00,
2013-04-02 11:42:00,22.4,12.0,29.81,NNW,331,14.0,21.0,65,0.00,,,0.00,397,weatherlink.com 1.10,2013-04-02 15:42:00,
2013-04-02 11:57:00,23.4,12.0,29.81,NW,314,7.0,27.0,62,0.00,,,0.00,237,weatherlink.com 1.10,2013-04-02 15:57:00,
2013-04-02 12:12:00,23.0,11.0,29.80,South,186,4.0,25.0,61,0.00,,,0.00,411,weatherlink.com 1.10,2013-04-02 16:12:00,
2013-04-02 12:27:00,23.3,12.0,29.80,NW,309,6.0,18.0,63,0.00,,,0.00,494,weatherlink.com 1.10,2013-04-02 16:27:00,
2013-04-02 12:57:00,25.0,11.0,29.79,NW,304,15.0,18.0,56,0.00,,,0.00,378,weatherlink.com 1.10,2013-04-02 16:57:00,
2013-04-02 13:13:00,24.5,11.0,29.80,SSW,200,9.0,25.0,56,0.00,,,0.00,664,weatherlink.com 1.10,2013-04-02 17:13:00,
2013-04-02 13:28:00,23.6,13.0,29.80,ESE,110,7.0,23.0,64,0.00,,,0.00,367,weatherlink.com 1.10,2013-04-02 17:28:00,
2013-04-02 13:43:00,24.2,11.0,29.79,NNW,330,13.0,25.0,58,0.00,,,0.00,230,weatherlink.com 1.10,2013-04-02 17:43:00,
2013-04-02 13:58:00,23.3,12.0,29.80,NW,306,5.0,33.0,61,0.00,,,0.00,290,weatherlink.com 1.10,2013-04-02 17:58:00,
2013-04-02 14:13:00,22.2,14.0,29.81,NW,307,14.0,24.0,72,0.00,,,0.00,141,weatherlink.com 1.10,2013-04-02 18:13:00,
2013-04-02 14:29:00,22.8,12.0,29.80,South,171,5.0,18.0,64,0.00,,,0.00,262,weatherlink.com 1.10,2013-04-02 18:29:00,
2013-04-02 14:43:00,21.7,16.0,29.80,NW,325,2.0,28.0,77,0.00,,,0.00,343,weatherlink.com 1.10,2013-04-02 18:43:00,
2013-04-02 14:59:00,23.5,11.0,29.80,SSW,195,15.0,30.0,59,0.00,,,0.00,622,weatherlink.com 1.10,2013-04-02 18:59:00,
2013-04-02 15:14:00,22.8,14.0,29.80,South,182,4.0,19.0,68,0.00,,,0.00,209,weatherlink.com 1.10,2013-04-02 19:14:00,
2013-04-02 15:29:00,23.0,11.0,29.79,NW,309,8.0,23.0,60,0.00,,,0.00,250,weatherlink.com 1.10,2013-04-02 19:29:00,
2013-04-02 15:44:00,23.6,10.0,29.80,West,267,1.0,23.0,57,0.00,,,0.00,216,weatherlink.com 1.10,2013-04-02 19:44:00,
2013-04-02 15:59:00,23.3,13.0,29.80,WNW,291,9.0,16.0,64,0.00,,,0.00,323,weatherlink.com 1.10,2013-04-02 19:59:00,
2013-04-02 16:14:00,23.1,13.0,29.80,WNW,303,7.0,24.0,66,0.00,,,0.00,151,weatherlink.com 1.10,2013-04-02 20:14:00,
2013-04-02 16:29:00,23.8,11.0,29.78,NW,314,9.0,24.0,59,0.00,,,0.00,306,weatherlink.com 1.10,2013-04-02 20:29:00,
2013-04-02 17:01:00,23.8,11.0,29.80,NW,323,13.0,19.0,59,0.00,,,0.00,130,weatherlink.com 1.10,2013-04-02 21:01:00,
2013-04-02 17:17:00,23.6,11.0,29.80,NW,307,12.0,27.0,58,0.00,,,0.00,169,weatherlink.com 1.10,2013-04-02 21:17:00,
2013-04-02 17:31:00,23.3,10.0,29.81,NW,311,7.0,19.0,58,0.00,,,0.00,100,weatherlink.com 1.10,2013-04-02 21:31:00,
2013-04-02 18:01:00,23.3,10.0,29.83,WNW,302,10.0,31.0,58,0.00,,,0.00,44,weatherlink.com 1.10,2013-04-02 22:01:00,
2013-04-02 18:16:00,23.3,11.0,29.84,NNW,331,5.0,25.0,60,0.00,,,0.00,90,weatherlink.com 1.10,2013-04-02 22:16:00,
2013-04-02 18:31:00,23.1,11.0,29.84,South,184,16.0,24.0,61,0.00,,,0.00,39,weatherlink.com 1.10,2013-04-02 22:31:00,
2013-04-02 18:46:00,22.7,13.0,29.86,NNW,333,8.0,14.0,65,0.00,,,0.00,32,weatherlink.com 1.10,2013-04-02 22:46:00,
2013-04-02 19:01:00,22.5,12.0,29.86,NNW,337,1.0,12.0,63,0.00,,,0.00,16,weatherlink.com 1.10,2013-04-02 23:01:00,
2013-04-02 19:17:00,22.5,11.0,29.86,East,86,1.0,12.0,61,0.00,,,0.00,5,weatherlink.com 1.10,2013-04-02 23:17:00,
2013-04-02 19:31:00,22.3,11.0,29.86,NNW,331,8.0,19.0,63,0.00,,,0.00,0,weatherlink.com 1.10,2013-04-02 23:31:00,
2013-04-02 19:47:00,22.3,12.0,29.89,West,268,2.0,20.0,65,0.00,,,0.00,0,weatherlink.com 1.10,2013-04-02 23:47:00,
2013-04-02 20:02:00,22.1,12.0,29.89,WNW,300,7.0,9.0,65,0.00,,,0.00,0,weatherlink.com 1.10,2013-04-03 00:02:00,
2013-04-02 20:17:00,22.2,13.0,29.89,NW,318,11.0,15.0,67,0.00,,,0.00,0,weatherlink.com 1.10,2013-04-03 00:17:00,
2013-04-02 20:32:00,22.0,14.0,29.90,West,268,7.0,14.0,71,0.00,,,0.00,0,weatherlink.com 1.10,2013-04-03 00:32:00,
2013-04-02 20:47:00,21.9,14.0,29.91,NNW,342,1.0,14.0,72,0.00,,,0.00,0,weatherlink.com 1.10,2013-04-03 00:47:00,
2013-04-02 21:02:00,21.7,15.0,29.90,WNW,288,2.0,12.0,75,0.00,,,0.00,0,weatherlink.com 1.10,2013-04-03 01:02:00,
2013-04-02 21:17:00,21.9,15.0,29.90,West,275,1.0,18.0,74,0.00,,,0.00,0,weatherlink.com 1.10,2013-04-03 01:17:00,
2013-04-02 21:32:00,21.8,14.0,29.89,WNW,297,4.0,19.0,73,0.00,,,0.00,0,weatherlink.com 1.10,2013-04-03 01:32:00,
2013-04-02 21:47:00,21.6,15.0,29.89,WNW,298,3.0,20.0,75,0.00,,,0.00,0,weatherlink.com 1.10,2013-04-03 01:47:00,
2013-04-02 22:02:00,21.6,15.0,29.89,South,191,8.0,21.0,76,0.00,,,0.00,0,weatherlink.com 1.10,2013-04-03 02:02:00,
2013-04-02 22:17:00,21.5,14.0,29.90,NNE,24,12.0,28.0,74,0.00,,,0.00,0,weatherlink.com 1.10,2013-04-03 02:17:00,
2013-04-02 22:32:00,21.4,15.0,29.90,NNE,20,1.0,19.0,75,0.00,,,0.00,0,weatherlink.com 1.10,2013-04-03 02:32:00,
2013-04-02 22:47:00,21.1,15.0,29.89,WNW,287,3.0,21.0,77,0.00,,,0.00,0,weatherlink.com 1.10,2013-04-03 02:47:00,
2013-04-02 23:03:00,21.0,15.0,29.88,WNW,298,6.0,16.0,77,0.00,,,0.00,0,weatherlink.com 1.10,2013-04-03 03:03:00,
2013-04-02 23:18:00,20.8,15.0,29.87,North,351,4.0,18.0,77,0.00,,,0.00,0,weatherlink.com 1.10,2013-04-03 03:18:00,
2013-04-02 23:33:00,20.9,14.0,29.87,West,263,1.0,21.0,76,0.00,,,0.00,0,weatherlink.com 1.10,2013-04-03 03:33:00,
2013-04-02 23:48:00,20.9,14.0,29.87,NW,319,13.0,24.0,75,0.00,,,0.00,0,weatherlink.com 1.10,2013-04-03 03:48:00,